Time;durP1;ratioP1;P1;durP2;ratioP2;P2;SDS_P1;SDS_P2;PMS_P1;PMS_P2;Temp;Humidity;BMP_temperature;BMP_pressure;BME280_temperature;BME280_humidity;BME280_pressure;Samples;Min_cycle;Max_cycle;Signal;HPM_P1;HPM_P2
2022/10/22 00:01:58;;;;;;;1999.90;999.90;;;;;;;15.16;100.00;98159.59;4953231;28;20027;-72
2022/10/22 00:04:23;;;;;;;1999.90;999.90;;;;;;;15.20;100.00;98166.06;4953229;29;20027;-71
2022/10/22 00:06:49;;;;;;;1999.90;999.90;;;;;;;15.12;100.00;98159.44;4953049;29;20031;-71
2022/10/22 00:09:14;;;;;;;1999.90;999.90;;;;;;;15.09;100.00;98146.28;4951478;29;20050;-72
2022/10/22 00:11:41;;;;;;;1999.90;999.90;;;;;;;15.14;100.00;98157.16;4954838;29;20027;-71
2022/10/22 00:14:06;;;;;;;1999.90;999.90;;;;;;;15.13;100.00;98155.50;4955621;29;20027;-72
2022/10/22 00:16:32;;;;;;;1999.90;999.90;;;;;;;15.11;100.00;98143.19;4953309;28;20030;-72
2022/10/22 00:18:57;;;;;;;1999.90;999.90;;;;;;;15.03;100.00;98145.59;4953042;29;20405;-71
2022/10/22 00:21:23;;;;;;;1999.90;999.90;;;;;;;15.03;100.00;98131.81;4952907;29;20492;-71
2022/10/22 00:23:48;;;;;;;1999.90;999.90;;;;;;;15.08;100.00;98138.31;4952736;29;20026;-71
2022/10/22 00:26:13;;;;;;;1999.90;999.90;;;;;;;15.01;100.00;98136.84;4952824;28;20086;-71
2022/10/22 00:28:39;;;;;;;1999.90;999.90;;;;;;;14.92;100.00;98133.25;4952911;29;20043;-71
2022/10/22 00:31:05;;;;;;;1999.90;999.90;;;;;;;14.93;100.00;98137.66;4953103;29;20031;-71
2022/10/22 00:33:30;;;;;;;1999.90;999.90;;;;;;;14.87;100.00;98138.94;4952969;29;20125;-71
2022/10/22 00:35:56;;;;;;;1999.90;999.90;;;;;;;14.85;100.00;98132.91;4952422;28;20035;-71
2022/10/22 00:38:21;;;;;;;1999.90;999.90;;;;;;;14.79;100.00;98128.66;4952391;29;20047;-71
2022/10/22 00:40:47;;;;;;;1999.90;999.90;;;;;;;14.84;100.00;98124.97;4951309;29;20560;-71
2022/10/22 00:43:15;;;;;;;1999.90;999.90;;;;;;;14.88;100.00;98121.25;4952842;29;20027;-72
2022/10/22 00:45:40;;;;;;;1999.90;999.90;;;;;;;14.83;100.00;98113.13;4954888;29;20565;-71
2022/10/22 00:48:09;;;;;;;1999.90;999.90;;;;;;;14.85;100.00;98116.38;4956645;29;20067;-71
2022/10/22 00:50:37;;;;;;;1999.90;999.90;;;;;;;14.86;100.00;98123.53;4952628;28;20114;-71
2022/10/22 00:53:07;;;;;;;1999.90;999.90;;;;;;;14.83;100.00;98126.91;4952706;29;20035;-71
2022/10/22 00:55:32;;;;;;;1999.90;999.90;;;;;;;14.85;100.00;98124.63;4952656;29;20405;-71
2022/10/22 00:58:00;;;;;;;1999.90;999.90;;;;;;;14.81;100.00;98118.16;4952235;29;20033;-71
2022/10/22 01:00:25;;;;;;;1999.90;999.90;;;;;;;14.91;100.00;98119.81;4952825;29;20470;-72
2022/10/22 01:02:52;;;;;;;1999.90;999.90;;;;;;;14.94;100.00;98128.22;4952211;29;20035;-71
2022/10/22 01:05:18;;;;;;;1999.90;999.90;;;;;;;15.02;100.00;98119.19;4952362;29;20106;-71
2022/10/22 01:07:48;;;;;;;1999.90;999.90;;;;;;;15.06;100.00;98124.06;4951895;29;20545;-71
2022/10/22 01:10:19;;;;;;;1999.90;999.90;;;;;;;15.08;100.00;98110.78;4952353;29;20024;-71
2022/10/22 01:13:07;;;;;;;1999.90;999.90;;;;;;;15.16;100.00;98110.00;4952267;29;20047;-71
2022/10/22 01:16:02;;;;;;;1999.90;999.90;;;;;;;15.14;100.00;98101.22;4956802;28;20043;-71
2022/10/22 01:18:43;;;;;;;1999.90;999.90;;;;;;;15.17;100.00;98101.41;4952269;29;20346;-71
2022/10/22 01:21:37;;;;;;;1999.90;999.90;;;;;;;15.21;100.00;98096.88;4950924;29;20632;-71
2022/10/22 01:24:34;;;;;;;1999.90;999.90;;;;;;;15.22;100.00;98092.19;4952041;29;20059;-71
2022/10/22 01:27:18;;;;;;;1999.90;999.90;;;;;;;15.23;100.00;98093.78;4957844;28;20453;-71
2022/10/22 01:29:52;;;;;;;1999.90;999.90;;;;;;;15.23;100.00;98085.50;4952659;29;20023;-71
2022/10/22 01:32:22;;;;;;;1999.90;999.90;;;;;;;15.25;100.00;98069.47;4952023;29;20031;-71
2022/10/22 01:34:58;;;;;;;1999.90;999.90;;;;;;;15.28;100.00;98069.66;4952216;29;20114;-71
2022/10/22 01:37:29;;;;;;;1999.90;999.90;;;;;;;15.28;100.00;98074.34;4952067;29;20035;-71
2022/10/22 01:39:56;;;;;;;1999.90;999.90;;;;;;;15.27;100.00;98061.69;4952065;29;20042;-71
2022/10/22 01:42:23;;;;;;;1999.90;999.90;;;;;;;15.33;100.00;98063.16;4951988;28;20035;-71
2022/10/22 01:44:49;;;;;;;1999.90;999.90;;;;;;;15.37;100.00;98070.47;4952163;29;20039;-71
2022/10/22 01:47:31;;;;;;;1999.90;999.90;;;;;;;15.38;100.00;98058.28;4953072;28;20032;-71
2022/10/22 01:50:06;;;;;;;1999.90;999.90;;;;;;;15.36;100.00;98068.03;4955361;29;20397;-71
2022/10/22 01:53:25;;;;;;;1999.90;999.90;;;;;;;15.45;100.00;98058.63;4955332;29;20071;-71
2022/10/22 01:56:44;;;;;;;1999.90;999.90;;;;;;;15.48;100.00;98058.00;4991789;28;20053;-71
2022/10/22 01:59:28;;;;;;;1999.90;999.90;;;;;;;15.48;100.00;98055.25;4934239;29;20035;-71
2022/10/22 02:02:09;;;;;;;1999.90;999.90;;;;;;;15.51;100.00;98042.75;4969880;28;20031;-71
2022/10/22 02:04:38;;;;;;;1999.90;999.90;;;;;;;15.53;100.00;98037.75;4955155;29;20114;-71
2022/10/22 02:07:06;;;;;;;1999.90;999.90;;;;;;;15.54;100.00;98040.16;4953875;29;20067;-71
2022/10/22 02:09:33;;;;;;;1999.90;999.90;;;;;;;15.56;100.00;98034.34;4954895;28;20043;-71
2022/10/22 02:12:01;;;;;;;1999.90;999.90;;;;;;;15.51;100.00;98034.47;4954902;29;20126;-71
2022/10/22 02:14:29;;;;;;;1999.90;999.90;;;;;;;15.56;100.00;98033.50;4955163;29;20035;-71
2022/10/22 02:16:57;;;;;;;1999.90;999.90;;;;;;;15.59;100.00;98033.69;4955013;29;20035;-71
2022/10/22 02:19:34;;;;;;;1999.90;999.90;;;;;;;15.57;100.00;98044.22;4954866;29;20027;-71
2022/10/22 02:22:00;;;;;;;1999.90;999.90;;;;;;;15.57;100.00;98032.38;4954913;29;20047;-71
2022/10/22 02:24:25;;;;;;;1999.90;999.90;;;;;;;15.59;100.00;98019.88;4954894;29;20137;-71
2022/10/22 02:27:05;;;;;;;1999.90;999.90;;;;;;;15.57;100.00;98029.63;4954783;29;20485;-71
2022/10/22 02:29:37;;;;;;;1999.90;999.90;;;;;;;15.57;100.00;98026.88;4954920;28;20029;-72
2022/10/22 02:32:06;;;;;;;1999.90;999.90;;;;;;;15.62;100.00;98024.75;4954714;29;20031;-72
2022/10/22 02:34:32;;;;;;;1999.90;999.90;;;;;;;15.65;100.00;98013.06;4989850;28;20038;-71
2022/10/22 02:37:02;;;;;;;1999.90;999.90;;;;;;;15.70;100.00;98010.13;4990226;28;20030;-71
2022/10/22 02:39:30;;;;;;;1999.90;999.90;;;;;;;15.75;100.00;98011.91;4958176;28;20035;-71
2022/10/22 02:41:56;;;;;;;1999.90;999.90;;;;;;;15.73;100.00;98022.44;4972480;28;20038;-72
2022/10/22 02:44:23;;;;;;;1999.90;999.90;;;;;;;15.74;100.00;98033.16;4973737;28;20035;-73
2022/10/22 02:46:49;;;;;;;1999.90;999.90;;;;;;;15.78;100.00;98027.81;4973464;28;20469;-72
2022/10/22 02:49:14;;;;;;;1999.90;999.90;;;;;;;15.83;100.00;98033.97;4973265;28;20370;-72
2022/10/22 02:51:40;;;;;;;1999.90;999.90;;;;;;;15.88;100.00;98027.47;4972746;28;20037;-73
2022/10/22 02:54:05;;;;;;;1999.90;999.90;;;;;;;15.92;100.00;98023.72;4973782;28;20037;-73
2022/10/22 02:56:31;;;;;;;1999.90;999.90;;;;;;;15.95;100.00;98034.09;4978898;28;20031;-73
2022/10/22 02:58:57;;;;;;;1999.90;999.90;;;;;;;15.96;100.00;98013.66;4974900;28;20484;-73
2022/10/22 03:01:22;;;;;;;1999.90;999.90;;;;;;;16.02;100.00;98023.38;4973976;28;20050;-73
2022/10/22 03:03:48;;;;;;;1999.90;999.90;;;;;;;16.07;100.00;98014.09;4973530;28;20026;-73
2022/10/22 03:06:13;;;;;;;1999.90;999.90;;;;;;;16.08;100.00;98011.00;4973563;28;20034;-73
2022/10/22 03:08:38;;;;;;;1999.90;999.90;;;;;;;16.05;100.00;98005.34;4973296;28;20075;-72
2022/10/22 03:11:04;;;;;;;1999.90;999.90;;;;;;;16.15;100.00;98004.19;4973350;28;20039;-73
2022/10/22 03:13:29;;;;;;;1999.90;999.90;;;;;;;16.21;100.00;97994.56;4973281;28;20133;-72
2022/10/22 03:15:54;;;;;;;1999.90;999.90;;;;;;;16.17;100.00;97985.31;4973381;28;20392;-72
2022/10/22 03:18:20;;;;;;;1999.90;999.90;;;;;;;16.21;100.00;97986.28;4973284;28;20107;-72
2022/10/22 03:20:45;;;;;;;1999.90;999.90;;;;;;;16.19;100.00;97991.34;4972904;28;20026;-72
2022/10/22 03:23:13;;;;;;;1999.90;999.90;;;;;;;16.22;100.00;97993.44;4973283;28;20031;-72
2022/10/22 03:25:41;;;;;;;1999.90;999.90;;;;;;;16.20;100.00;97996.50;4973182;28;20140;-73
2022/10/22 03:28:09;;;;;;;1999.90;999.90;;;;;;;16.18;100.00;97998.81;4973008;28;20031;-72
2022/10/22 03:30:35;;;;;;;1999.90;999.90;;;;;;;16.14;100.00;97997.03;4973333;28;20459;-72
2022/10/22 03:33:01;;;;;;;1999.90;999.90;;;;;;;16.20;100.00;98001.22;4967948;28;20035;-72
2022/10/22 03:35:26;;;;;;;1999.90;999.90;;;;;;;16.20;100.00;98002.03;4965195;28;20027;-73
2022/10/22 03:37:52;;;;;;;1999.90;999.90;;;;;;;16.27;100.00;97996.81;4953492;29;20433;-73
2022/10/22 03:40:19;;;;;;;1999.90;999.90;;;;;;;16.27;100.00;97996.00;4967538;28;20026;-72
2022/10/22 03:42:44;;;;;;;1999.90;999.90;;;;;;;16.31;100.00;97994.22;4973351;28;20480;-73
2022/10/22 03:45:10;;;;;;;1999.90;999.90;;;;;;;16.29;100.00;98002.81;4972823;28;20034;-72
2022/10/22 03:47:36;;;;;;;1999.90;999.90;;;;;;;16.28;100.00;97998.44;4972469;28;20154;-72
2022/10/22 03:50:01;;;;;;;1999.90;999.90;;;;;;;16.31;100.00;98008.00;4972074;28;20161;-73
2022/10/22 03:52:27;;;;;;;1999.90;999.90;;;;;;;16.29;100.00;98004.78;4958563;28;20046;-73
2022/10/22 03:54:52;;;;;;;1999.90;999.90;;;;;;;16.30;100.00;97996.16;4952971;29;20485;-72
2022/10/22 03:57:18;;;;;;;1999.90;999.90;;;;;;;16.29;100.00;97990.97;4952930;29;20051;-73
2022/10/22 03:59:45;;;;;;;1999.90;999.90;;;;;;;16.32;100.00;97982.03;4953119;29;20497;-72
2022/10/22 04:02:11;;;;;;;1999.90;999.90;;;;;;;16.28;100.00;97981.88;4953248;29;20433;-72
2022/10/22 04:04:38;;;;;;;1999.90;999.90;;;;;;;16.27;100.00;97982.19;4952866;28;20046;-72
2022/10/22 04:07:05;;;;;;;1999.90;999.90;;;;;;;16.31;100.00;97977.66;4952763;28;20035;-72
2022/10/22 04:09:31;;;;;;;1999.90;999.90;;;;;;;16.31;100.00;97969.38;4952160;28;20047;-73
2022/10/22 04:11:57;;;;;;;1999.90;999.90;;;;;;;16.29;100.00;97975.19;4952858;29;21560;-73
2022/10/22 04:14:22;;;;;;;1999.90;999.90;;;;;;;16.26;100.00;97966.78;4954578;29;20096;-73
2022/10/22 04:16:47;;;;;;;1999.90;999.90;;;;;;;16.30;100.00;97962.22;4954014;29;20041;-73
2022/10/22 04:19:13;;;;;;;1999.90;999.90;;;;;;;16.30;100.00;97960.25;4954768;29;20489;-73
2022/10/22 04:21:38;;;;;;;1999.90;999.90;;;;;;;16.35;100.00;97960.06;4954174;29;20035;-73
2022/10/22 04:24:03;;;;;;;1999.90;999.90;;;;;;;16.35;100.00;97959.28;4952267;28;20037;-71
2022/10/22 04:26:29;;;;;;;1999.90;999.90;;;;;;;16.41;100.00;97952.44;4952978;29;20485;-73
2022/10/22 04:28:54;;;;;;;1999.90;999.90;;;;;;;16.40;100.00;97968.19;4952322;28;20429;-74
2022/10/22 04:31:22;;;;;;;1999.90;999.90;;;;;;;16.41;100.00;97969.78;4966801;28;20038;-73
2022/10/22 04:33:55;;;;;;;1999.90;999.90;;;;;;;16.35;100.00;97973.88;4991398;28;20514;-72
2022/10/22 04:36:21;;;;;;;1999.90;999.90;;;;;;;16.41;100.00;97969.00;4991166;28;20113;-73
2022/10/22 04:38:52;;;;;;;1999.90;999.90;;;;;;;16.42;100.00;97967.84;4989879;28;20443;-73
2022/10/22 04:41:20;;;;;;;1999.90;999.90;;;;;;;16.43;100.00;97983.25;4991640;28;20540;-72
2022/10/22 04:43:47;;;;;;;1999.90;999.90;;;;;;;16.44;100.00;97973.84;4990961;28;20113;-72
2022/10/22 04:46:15;;;;;;;1999.90;999.90;;;;;;;16.49;100.00;97970.88;4991025;28;20030;-72
2022/10/22 04:48:41;;;;;;;1999.90;999.90;;;;;;;16.47;100.00;97968.47;4990928;28;20443;-72
2022/10/22 04:51:09;;;;;;;1999.90;999.90;;;;;;;16.53;100.00;97977.38;4990834;28;20030;-72
2022/10/22 04:53:35;;;;;;;1999.90;999.90;;;;;;;16.52;100.00;97981.28;4990632;28;20578;-72
2022/10/22 04:56:06;;;;;;;1999.90;999.90;;;;;;;16.53;100.00;97978.19;4990862;28;20034;-73
2022/10/22 04:58:32;;;;;;;1999.90;999.90;;;;;;;16.55;100.00;97967.63;4990891;28;20058;-73
2022/10/22 05:00:57;;;;;;;1999.90;999.90;;;;;;;16.61;100.00;97973.78;4991375;28;20072;-72
2022/10/22 05:03:24;;;;;;;1999.90;999.90;;;;;;;16.63;100.00;97967.94;4992190;28;20084;-73
2022/10/22 05:05:49;;;;;;;1999.90;999.90;;;;;;;16.58;100.00;97963.38;4997356;28;20072;-73
2022/10/22 05:08:14;;;;;;;1999.90;999.90;;;;;;;16.62;100.00;97969.88;4993536;28;20035;-72
2022/10/22 05:10:40;;;;;;;1999.90;999.90;;;;;;;16.66;100.00;97953.44;4972515;28;20394;-72
2022/10/22 05:13:05;;;;;;;1999.90;999.90;;;;;;;16.63;100.00;97956.88;4951882;29;20054;-73
2022/10/22 05:15:32;;;;;;;1999.90;999.90;;;;;;;16.62;100.00;97956.06;4954700;29;20030;-72
2022/10/22 05:17:58;;;;;;;1999.90;999.90;;;;;;;16.64;100.00;97962.06;4953560;29;20062;-72
2022/10/22 05:20:23;;;;;;;1999.90;999.90;;;;;;;16.63;100.00;97954.94;4952331;29;20083;-71
2022/10/22 05:22:48;;;;;;;1999.90;999.90;;;;;;;16.60;100.00;97945.34;4954713;28;20036;-73
2022/10/22 05:25:14;;;;;;;1999.90;999.90;;;;;;;16.58;100.00;97946.81;4955765;28;20469;-72
2022/10/22 05:27:39;;;;;;;1999.90;999.90;;;;;;;16.59;100.00;97951.22;4955745;29;20035;-73
2022/10/22 05:30:05;;;;;;;1999.90;999.90;;;;;;;16.56;100.00;97938.06;4956060;28;20074;-72
2022/10/22 05:32:31;;;;;;;1999.90;999.90;;;;;;;16.58;100.00;97944.06;4956605;28;20023;-72
2022/10/22 05:34:56;;;;;;;1999.90;999.90;;;;;;;16.53;100.00;97945.03;4955629;28;20163;-72
2022/10/22 05:37:22;;;;;;;1999.90;999.90;;;;;;;16.54;100.00;97948.59;4955795;28;20028;-72
2022/10/22 05:39:47;;;;;;;1999.90;999.90;;;;;;;16.54;100.00;97949.44;4957446;28;20027;-72
2022/10/22 05:42:12;;;;;;;1999.90;999.90;;;;;;;16.61;100.00;97946.16;4955260;28;20035;-72
2022/10/22 05:44:39;;;;;;;1999.90;999.90;;;;;;;16.63;100.00;97934.78;4955582;28;20433;-72
2022/10/22 05:47:05;;;;;;;1999.90;999.90;;;;;;;16.64;100.00;97942.72;4955325;28;20066;-72
2022/10/22 05:49:30;;;;;;;1999.90;999.90;;;;;;;16.64;100.00;97934.44;4955127;28;20039;-72
2022/10/22 05:51:55;;;;;;;1999.90;999.90;;;;;;;16.66;100.00;97937.69;4955084;28;20035;-72
2022/10/22 05:54:21;;;;;;;1999.90;999.90;;;;;;;16.70;100.00;97932.28;4955122;28;20435;-72
2022/10/22 05:56:47;;;;;;;1999.90;999.90;;;;;;;16.70;100.00;97938.63;4958226;28;20018;-73
2022/10/22 05:59:12;;;;;;;1999.90;999.90;;;;;;;16.76;100.00;97947.53;4966370;28;20086;-72
2022/10/22 06:01:39;;;;;;;1999.90;999.90;;;;;;;16.71;100.00;97950.47;4955282;29;20023;-72
2022/10/22 06:04:08;;;;;;;1999.90;999.90;;;;;;;16.74;100.00;97952.56;4974780;28;20093;-71
2022/10/22 06:06:41;;;;;;;1999.90;999.90;;;;;;;16.75;100.00;97957.78;4983625;28;20033;-71
2022/10/22 06:09:14;;;;;;;1999.90;999.90;;;;;;;16.75;100.00;97956.97;4983505;28;20130;-71
2022/10/22 06:11:39;;;;;;;1999.90;999.90;;;;;;;16.73;100.00;97971.09;4982859;28;20087;-71
2022/10/22 06:14:05;;;;;;;1999.90;999.90;;;;;;;16.70;100.00;97955.19;4981913;28;20045;-71
2022/10/22 06:16:30;;;;;;;1999.90;999.90;;;;;;;16.73;100.00;97976.63;4981766;28;20019;-71
2022/10/22 06:18:59;;;;;;;1999.90;999.90;;;;;;;16.73;100.00;97959.25;4982644;28;20058;-72
2022/10/22 06:21:24;;;;;;;1999.90;999.90;;;;;;;16.73;100.00;97954.50;4983766;28;20037;-72
2022/10/22 06:23:49;;;;;;;1999.90;999.90;;;;;;;16.75;100.00;97963.31;4983777;28;20105;-71
2022/10/22 06:26:16;;;;;;;1999.90;999.90;;;;;;;16.74;100.00;97969.97;4979376;28;20019;-72
2022/10/22 06:28:42;;;;;;;1999.90;999.90;;;;;;;16.73;100.00;97968.31;4980388;28;20033;-70
2022/10/22 06:31:08;;;;;;;1999.90;999.90;;;;;;;16.73;100.00;97986.88;4983700;28;20419;-71
2022/10/22 06:33:40;;;;;;;1999.90;999.90;;;;;;;16.81;100.00;97984.06;4992412;28;20047;-72
2022/10/22 06:36:08;;;;;;;1999.90;999.90;;;;;;;16.81;100.00;97989.59;4989798;28;20089;-71
2022/10/22 06:38:34;;;;;;;1999.90;999.90;;;;;;;16.80;100.00;97974.13;4982861;28;20109;-72
2022/10/22 06:41:10;;;;;;;1999.90;999.90;;;;;;;16.83;100.00;97970.69;4983933;28;20109;-72
2022/10/22 06:43:36;;;;;;;1999.90;999.90;;;;;;;16.89;100.00;97977.66;4986404;28;20022;-71
2022/10/22 06:46:03;;;;;;;1999.90;999.90;;;;;;;16.84;100.00;97977.84;4983302;28;20029;-72
2022/10/22 06:48:29;;;;;;;1999.90;999.90;;;;;;;16.83;100.00;97976.22;4982594;28;20484;-72
2022/10/22 06:50:54;;;;;;;1999.90;999.90;;;;;;;16.81;100.00;97977.72;4980523;28;20046;-72
2022/10/22 06:53:20;;;;;;;1999.90;999.90;;;;;;;16.79;100.00;97980.81;4966659;28;20027;-71
2022/10/22 06:55:45;;;;;;;1999.90;999.90;;;;;;;16.83;100.00;97976.22;4970344;28;20106;-72
2022/10/22 06:58:10;;;;;;;1999.90;999.90;;;;;;;16.84;100.00;97977.84;4964179;28;20023;-73
2022/10/22 07:00:36;;;;;;;1999.90;999.90;;;;;;;16.86;100.00;97986.63;4960047;28;20023;-72
2022/10/22 07:03:01;;;;;;;1999.90;999.90;;;;;;;16.80;100.00;97993.47;4971405;28;20034;-71
2022/10/22 07:05:26;;;;;;;1999.90;999.90;;;;;;;16.84;100.00;97980.63;4970803;28;20026;-72
2022/10/22 07:07:52;;;;;;;1999.90;999.90;;;;;;;16.88;100.00;97983.53;4976478;28;20038;-72
2022/10/22 07:10:17;;;;;;;1999.90;999.90;;;;;;;16.85;100.00;97984.97;4978636;28;20326;-72
2022/10/22 07:12:42;;;;;;;1999.90;999.90;;;;;;;16.86;100.00;97981.09;4982424;28;20408;-72
2022/10/22 07:15:08;;;;;;;1999.90;999.90;;;;;;;16.86;100.00;97986.63;4986267;28;20022;-72
2022/10/22 07:17:34;;;;;;;1999.90;999.90;;;;;;;16.87;100.00;97998.47;4985418;28;20026;-72
2022/10/22 07:19:59;;;;;;;1999.90;999.90;;;;;;;16.87;100.00;97982.72;4986571;28;20029;-72
2022/10/22 07:22:26;;;;;;;1999.90;999.90;;;;;;;16.93;100.00;97988.84;4981711;28;20432;-72
2022/10/22 07:24:51;;;;;;;1999.90;999.90;;;;;;;16.91;100.00;97988.38;4981207;28;20064;-72
2022/10/22 07:27:16;;;;;;;1999.90;999.90;;;;;;;16.87;100.00;97988.25;4980868;28;20058;-72
2022/10/22 07:29:42;;;;;;;1999.90;999.90;;;;;;;16.99;100.00;97984.75;4981459;28;20058;-73
2022/10/22 07:32:07;;;;;;;1999.90;999.90;;;;;;;16.95;100.00;97990.13;4990095;28;20149;-73
2022/10/22 07:34:32;;;;;;;1999.90;999.90;;;;;;;17.02;100.00;97990.41;4980173;28;20030;-72
2022/10/22 07:36:58;;;;;;;1999.90;999.90;;;;;;;17.08;100.00;97985.47;4975036;28;20412;-72
2022/10/22 07:39:24;;;;;;;1999.90;999.90;;;;;;;17.11;100.00;97987.56;4986359;28;20484;-72
2022/10/22 07:41:50;;;;;;;1999.90;999.90;;;;;;;17.12;100.00;97990.00;4981132;28;20026;-72
2022/10/22 07:44:15;;;;;;;1999.90;999.90;;;;;;;17.18;100.00;97995.31;4981373;28;20562;-72
2022/10/22 07:46:40;;;;;;;1999.90;999.90;;;;;;;17.25;100.00;97987.31;4979484;28;20070;-72
2022/10/22 07:49:06;;;;;;;1999.90;999.90;;;;;;;17.25;100.00;97990.06;4988888;28;20018;-75
2022/10/22 07:51:31;;;;;;;1999.90;999.90;;;;;;;17.29;100.00;97988.25;4988297;28;20031;-74
2022/10/22 07:53:56;;;;;;;1999.90;999.90;;;;;;;17.28;100.00;97984.69;4974329;28;20081;-75
2022/10/22 07:56:21;;;;;;;1999.90;999.90;;;;;;;17.28;100.00;97981.09;4979629;28;20026;-75
2022/10/22 07:58:48;;;;;;;1999.90;999.90;;;;;;;17.20;100.00;97988.31;4981243;28;20061;-74
2022/10/22 08:01:14;;;;;;;1999.90;999.90;;;;;;;17.27;100.00;97990.53;4980074;28;20157;-75
2022/10/22 08:03:39;;;;;;;1999.90;999.90;;;;;;;17.22;100.00;97999.03;4982190;28;20443;-75
2022/10/22 08:06:05;;;;;;;1999.90;999.90;;;;;;;17.25;100.00;98001.94;4979702;28;20616;-74
2022/10/22 08:08:30;;;;;;;1999.90;999.90;;;;;;;17.24;100.00;97997.56;4981830;28;20146;-76
2022/10/22 08:10:57;;;;;;;1999.90;999.90;;;;;;;17.20;100.00;97993.84;4974654;28;20033;-75
2022/10/22 08:13:23;;;;;;;1999.90;999.90;;;;;;;17.19;100.00;97994.19;4979496;28;20057;-73
2022/10/22 08:15:48;;;;;;;1999.90;999.90;;;;;;;17.26;100.00;98000.00;4970726;28;20093;-75
2022/10/22 08:18:14;;;;;;;1999.90;999.90;;;;;;;17.32;100.00;98015.22;4980965;28;20077;-75
2022/10/22 08:20:40;;;;;;;1999.90;999.90;;;;;;;17.29;100.00;98015.91;4988036;28;20022;-75
2022/10/22 08:23:05;;;;;;;1999.90;999.90;;;;;;;17.28;100.00;98003.22;4978635;28;20033;-73
2022/10/22 08:25:32;;;;;;;1999.90;999.90;;;;;;;17.24;100.00;98016.09;4971285;28;20030;-74
2022/10/22 08:27:57;;;;;;;1999.90;999.90;;;;;;;17.25;100.00;98020.50;4971515;28;20162;-76
2022/10/22 08:30:22;;;;;;;1999.90;999.90;;;;;;;17.22;100.00;98010.91;4960582;28;20133;-76
2022/10/22 08:32:48;;;;;;;1999.90;999.90;;;;;;;17.20;100.00;98023.47;4950223;29;20088;-76
2022/10/22 08:35:13;;;;;;;1999.90;999.90;;;;;;;17.12;100.00;98016.84;4951265;28;20039;-76
2022/10/22 08:37:39;;;;;;;1999.90;999.90;;;;;;;17.20;100.00;98026.22;4951461;29;20031;-75
2022/10/22 08:40:05;;;;;;;1999.90;999.90;;;;;;;17.16;100.00;98012.25;4952049;29;20036;-75
2022/10/22 08:43:17;;;;;;;1999.90;999.90;;;;;;;17.07;100.00;98017.84;4948717;28;20066;-74
2022/10/22 08:46:10;;;;;;;1999.90;999.90;;;;;;;17.17;100.00;98021.34;4951456;28;20461;-75
2022/10/22 08:48:46;;;;;;;1999.90;999.90;;;;;;;17.10;100.00;98022.69;4963793;28;20042;-77
2022/10/22 08:51:15;;;;;;;1999.90;999.90;;;;;;;17.10;100.00;98025.44;4970368;28;20090;-75
2022/10/22 08:54:26;;;;;;;1999.90;999.90;;;;;;;17.05;100.00;98019.31;4970188;28;20117;-76
2022/10/22 08:57:26;;;;;;;1999.90;999.90;;;;;;;17.01;100.00;98027.47;4977322;28;20046;-76
2022/10/22 09:00:02;;;;;;;1999.90;999.90;;;;;;;16.94;100.00;98026.41;4961533;28;20081;-82
2022/10/22 09:02:38;;;;;;;;;;;;;;;16.91;100.00;98021.53;4980856;28;20019;-77
2022/10/22 09:05:43;;;;;;;1999.90;999.90;;;;;;;16.89;100.00;98024.63;4976914;28;19922;-75
2022/10/22 09:08:14;;;;;;;1999.90;999.90;;;;;;;16.95;100.00;98028.00;4982328;28;20047;-83
2022/10/22 09:10:47;;;;;;;1999.90;999.90;;;;;;;16.92;100.00;98023.13;4984961;28;20283;-83
2022/10/22 09:13:16;;;;;;;1999.90;999.90;;;;;;;16.93;100.00;98024.78;4980941;28;20038;-79
2022/10/22 09:15:48;;;;;;;1999.90;999.90;;;;;;;16.86;100.00;98028.06;4978561;28;20038;-80
2022/10/22 09:18:45;;;;;;;1999.90;999.90;;;;;;;16.90;100.00;98023.50;4975948;28;20042;-79
2022/10/22 09:21:31;;;;;;;1999.90;999.90;;;;;;;16.88;100.00;98028.56;4979113;28;20084;-76
2022/10/22 09:24:32;;;;;;;1999.90;999.90;;;;;;;16.86;100.00;98030.00;4988185;28;20061;-77
2022/10/22 09:26:57;;;;;;;1999.90;999.90;;;;;;;16.78;100.00;98028.13;4967570;28;20033;-77
2022/10/22 09:29:29;;;;;;;1999.90;999.90;;;;;;;16.76;100.00;98035.94;4978101;28;20432;-78
2022/10/22 09:32:00;;;;;;;1999.90;999.90;;;;;;;16.77;100.00;98032.00;4977944;28;20031;-76
2022/10/22 09:34:27;;;;;;;1999.90;999.90;;;;;;;16.79;100.00;98040.78;4976834;28;20027;-76
2022/10/22 09:37:05;;;;;;;1999.90;999.90;;;;;;;16.80;100.00;98047.91;4972226;28;20109;-75
2022/10/22 09:39:37;;;;;;;1999.90;999.90;;;;;;;16.68;100.00;98040.34;4958784;28;20102;-75
2022/10/22 09:42:03;;;;;;;1999.90;999.90;;;;;;;16.54;100.00;98048.00;4973613;28;20038;-76
2022/10/22 09:44:32;;;;;;;1999.90;999.90;;;;;;;16.50;100.00;98039.59;4975233;28;20082;-75
2022/10/22 09:46:58;;;;;;;1999.90;999.90;;;;;;;16.36;100.00;98038.19;4980708;28;20027;-76
2022/10/22 09:49:23;;;;;;;1999.90;999.90;;;;;;;16.29;100.00;98038.69;4974891;28;20026;-75
2022/10/22 09:51:59;;;;;;;1999.90;999.90;;;;;;;16.29;100.00;98044.22;4974248;28;20023;-76
2022/10/22 09:54:37;;;;;;;1999.90;999.90;;;;;;;16.29;100.00;98037.91;4973634;28;20126;-75
2022/10/22 09:57:21;;;;;;;1999.90;999.90;;;;;;;16.26;100.00;98041.31;4988609;28;20045;-76
2022/10/22 09:59:51;;;;;;;1999.90;999.90;;;;;;;16.22;100.00;98032.91;4973169;28;20025;-76
2022/10/22 10:02:27;;;;;;;1999.90;999.90;;;;;;;16.20;100.00;98035.16;4973742;28;20055;-75
2022/10/22 10:04:55;;;;;;;1999.90;999.90;;;;;;;16.17;100.00;98027.53;4973538;28;20039;-75
2022/10/22 10:07:26;;;;;;;1999.90;999.90;;;;;;;16.14;100.00;98030.16;4972685;28;20061;-76
2022/10/22 10:09:53;;;;;;;1999.90;999.90;;;;;;;16.12;100.00;98026.91;4973022;28;20043;-75
2022/10/22 10:12:45;;;;;;;1999.90;999.90;;;;;;;16.15;100.00;98035.34;4971049;28;20034;-75
2022/10/22 10:15:26;;;;;;;1999.90;999.90;;;;;;;16.12;100.00;98049.00;4972689;28;20492;-75
2022/10/22 10:18:16;;;;;;;1999.90;999.90;;;;;;;16.09;100.00;98044.94;4972977;28;20015;-74
2022/10/22 10:20:57;;;;;;;1999.90;999.90;;;;;;;16.06;100.00;98042.84;4973065;28;20026;-75
2022/10/22 10:23:26;;;;;;;1999.90;999.90;;;;;;;15.98;100.00;98055.50;4967644;28;20124;-75
2022/10/22 10:26:07;;;;;;;1999.90;999.90;;;;;;;15.92;100.00;98044.97;4972930;28;20444;-74
2022/10/22 10:28:53;;;;;;;1999.90;999.90;;;;;;;15.81;100.00;98043.72;4976666;28;20033;-75
2022/10/22 10:31:42;;;;;;;1999.90;999.90;;;;;;;15.82;100.00;98046.13;4973589;28;20054;-75
2022/10/22 10:34:35;;;;;;;1999.90;999.90;;;;;;;15.79;100.00;98051.47;4974290;28;20038;-75
2022/10/22 10:37:11;;;;;;;1999.90;999.90;;;;;;;15.70;100.00;98037.72;4976025;28;20019;-75
2022/10/22 10:39:58;;;;;;;1999.90;999.90;;;;;;;15.72;100.00;98040.97;4977462;28;20037;-76
2022/10/22 10:42:35;;;;;;;1999.90;999.90;;;;;;;15.49;100.00;98031.25;4980707;28;20047;-76
2022/10/22 10:45:12;;;;;;;1999.90;999.90;;;;;;;15.64;100.00;98033.50;4999230;28;20033;-76
2022/10/22 10:48:13;;;;;;;1999.90;999.90;;;;;;;15.67;100.00;98027.34;4980022;28;20365;-77
2022/10/22 10:50:57;;;;;;;1999.90;999.90;;;;;;;15.66;100.00;98028.50;4973815;28;20049;-77
2022/10/22 10:53:34;;;;;;;1999.90;999.90;;;;;;;15.63;100.00;98026.34;4994310;28;20153;-78
2022/10/22 10:56:15;;;;;;;1999.90;999.90;;;;;;;15.50;100.00;98013.56;4979774;28;20113;-76
2022/10/22 10:58:46;;;;;;;1999.90;999.90;;;;;;;15.60;100.00;98027.00;4980146;28;20030;-75
2022/10/22 11:01:26;;;;;;;1999.90;999.90;;;;;;;15.59;100.00;98022.66;4977655;28;20038;-75